createdAt,value
2018-09-02T00:00:58.072Z,10.77
2018-09-02T00:03:25.428Z,9.50
2018-09-02T00:05:52.749Z,4.60
2018-09-02T00:08:20.102Z,5.37
2018-09-02T00:10:47.466Z,6.27
2018-09-02T00:13:14.844Z,6.73
2018-09-02T00:15:42.297Z,15.97
2018-09-02T00:18:10.554Z,8.57
2018-09-02T00:20:38.939Z,8.53
2018-09-02T00:23:06.416Z,7.20
2018-09-02T00:25:33.735Z,9.43
2018-09-02T00:28:01.178Z,7.93
2018-09-02T00:30:28.489Z,10.47
2018-09-02T00:32:55.824Z,4.63
2018-09-02T00:35:23.148Z,6.63
2018-09-02T00:37:50.482Z,9.40
2018-09-02T00:40:17.822Z,6.47
2018-09-02T00:42:45.169Z,6.00
2018-09-02T00:45:12.565Z,5.30
2018-09-02T00:47:40.859Z,5.40
2018-09-02T00:50:09.311Z,3.37
2018-09-02T00:52:37.096Z,8.43
2018-09-02T00:55:04.460Z,4.77
2018-09-02T00:57:31.812Z,4.47
2018-09-02T00:59:59.204Z,4.57
2018-09-02T01:02:26.558Z,9.83
2018-09-02T01:04:53.909Z,9.27
2018-09-02T01:07:21.245Z,5.70
2018-09-02T01:09:48.561Z,9.33
2018-09-02T01:12:15.882Z,6.60
2018-09-02T01:14:43.401Z,4.20
2018-09-02T01:17:11.775Z,4.63
2018-09-02T01:19:39.825Z,7.80
2018-09-02T01:22:08.407Z,6.83
2018-09-02T01:24:35.836Z,5.67
2018-09-02T01:27:03.173Z,6.60
2018-09-02T01:29:30.600Z,2.87
2018-09-02T01:31:57.954Z,4.00
2018-09-02T01:34:25.356Z,6.23
2018-09-02T01:36:52.674Z,4.10
2018-09-02T01:39:20.015Z,3.10
2018-09-02T01:41:47.389Z,6.77
2018-09-02T01:44:14.735Z,4.30
2018-09-02T01:46:42.765Z,4.47
2018-09-02T01:49:10.821Z,5.20
2018-09-02T01:51:38.137Z,6.83
2018-09-02T01:54:05.529Z,7.60
2018-09-02T01:56:39.893Z,6.83
2018-09-02T01:59:07.343Z,8.13
2018-09-02T02:01:34.664Z,6.97
2018-09-02T02:04:02.026Z,4.53
2018-09-02T02:06:29.377Z,7.83
2018-09-02T02:08:56.973Z,13.17
2018-09-02T02:11:24.299Z,13.80
2018-09-02T02:13:51.637Z,6.83
2018-09-02T02:16:18.959Z,6.97
2018-09-02T02:18:46.299Z,5.83
2018-09-02T02:21:14.097Z,2.83
2018-09-02T02:23:41.489Z,7.00
2018-09-02T02:26:09.703Z,5.40
2018-09-02T02:28:37.760Z,4.10
2018-09-02T02:31:05.155Z,4.17
2018-09-02T02:33:32.566Z,5.33
2018-09-02T02:35:59.911Z,3.43
2018-09-02T02:38:27.593Z,8.23
2018-09-02T02:40:54.907Z,5.30
2018-09-02T02:43:22.238Z,5.50
2018-09-02T02:45:49.724Z,4.87
2018-09-02T02:48:17.043Z,12.90
2018-09-02T02:50:44.383Z,7.10
2018-09-02T02:53:11.817Z,2.63
2018-09-02T02:55:40.027Z,4.60
2018-09-02T02:58:07.962Z,7.63
2018-09-02T03:00:35.417Z,4.27
2018-09-02T03:03:02.736Z,6.83
2018-09-02T03:05:30.132Z,6.10
2018-09-02T03:07:57.543Z,5.17
2018-09-02T03:10:24.937Z,10.03
2018-09-02T03:12:52.254Z,4.47
2018-09-02T03:15:19.608Z,4.13
2018-09-02T03:17:47.360Z,4.00
2018-09-02T03:20:14.827Z,3.90
2018-09-02T03:22:42.398Z,2.33
2018-09-02T03:25:10.809Z,7.13
2018-09-02T03:27:39.420Z,4.00
2018-09-02T03:30:06.863Z,6.00
2018-09-02T03:32:34.233Z,4.33
2018-09-02T03:35:01.579Z,4.67
2018-09-02T03:37:28.909Z,5.03
2018-09-02T03:39:56.270Z,7.23
2018-09-02T03:42:23.613Z,4.63
2018-09-02T03:44:50.955Z,5.30
2018-09-02T03:47:19.270Z,4.37
2018-09-02T03:49:46.625Z,7.00
2018-09-02T03:52:14.024Z,5.07
2018-09-02T03:54:41.892Z,5.20
2018-09-02T03:57:10.257Z,6.13
2018-09-02T03:59:37.686Z,6.20
2018-09-02T04:02:05.142Z,4.93
2018-09-02T04:04:32.498Z,3.17
2018-09-02T04:06:59.802Z,4.40
2018-09-02T04:09:27.112Z,9.13
2018-09-02T04:11:54.503Z,4.07
2018-09-02T04:14:21.919Z,3.53
2018-09-02T04:16:49.259Z,6.43
2018-09-02T04:19:16.963Z,4.50
2018-09-02T04:21:45.249Z,10.43
2018-09-02T04:24:12.898Z,6.23
2018-09-02T04:26:41.356Z,7.97
2018-09-02T04:29:09.117Z,6.80
2018-09-02T04:31:36.529Z,5.40
2018-09-02T04:34:03.846Z,5.40
2018-09-02T04:36:31.191Z,6.80
2018-09-02T04:38:58.503Z,8.97
2018-09-02T04:41:25.869Z,5.07
2018-09-02T04:43:53.293Z,4.00
2018-09-02T04:46:20.641Z,5.83
2018-09-02T04:48:48.027Z,3.87
2018-09-02T04:51:15.377Z,7.50
2018-09-02T04:53:43.022Z,10.33
2018-09-02T04:56:12.106Z,10.10
2018-09-02T04:58:40.058Z,5.43
2018-09-02T05:01:07.486Z,3.57
2018-09-02T05:03:34.790Z,7.90
2018-09-02T05:06:02.181Z,8.43
2018-09-02T05:08:29.511Z,7.37
2018-09-02T05:10:56.867Z,6.50
2018-09-02T05:13:24.201Z,11.00
2018-09-02T05:15:51.555Z,4.77
2018-09-02T05:18:18.913Z,9.70
2018-09-02T05:20:46.271Z,6.10
2018-09-02T05:23:14.022Z,6.77
2018-09-02T05:25:42.395Z,7.27
2018-09-02T05:28:10.061Z,7.77
2018-09-02T05:30:37.503Z,5.17
2018-09-02T05:33:04.886Z,9.27
2018-09-02T05:35:32.258Z,3.23
2018-09-02T05:37:59.613Z,10.67
2018-09-02T05:40:26.939Z,3.40
2018-09-02T05:42:54.309Z,19.30
2018-09-02T05:45:21.678Z,15.20
2018-09-02T05:47:49.044Z,8.10
2018-09-02T05:50:16.487Z,17.13
2018-09-02T05:52:44.310Z,11.00
2018-09-02T05:55:12.776Z,11.43
2018-09-02T05:57:40.554Z,10.07
2018-09-02T06:00:08.112Z,5.97
2018-09-02T06:02:35.512Z,8.60
2018-09-02T06:05:02.859Z,9.87
2018-09-02T06:07:30.203Z,8.13
2018-09-02T06:09:57.583Z,7.07
2018-09-02T06:12:24.945Z,27.70
2018-09-02T06:14:52.272Z,30.93
2018-09-02T06:17:19.737Z,27.50
2018-09-02T06:19:47.001Z,12.47
2018-09-02T06:22:15.092Z,7.83
2018-09-02T06:24:44.339Z,6.57
2018-09-02T06:27:12.310Z,9.27
2018-09-02T06:29:39.712Z,7.63
2018-09-02T06:32:07.171Z,5.93
2018-09-02T06:34:34.557Z,7.00
2018-09-02T06:37:01.936Z,8.63
2018-09-02T06:39:29.419Z,7.47
2018-09-02T06:41:56.722Z,4.60
2018-09-02T06:44:24.049Z,8.30
2018-09-02T06:46:51.387Z,5.23
2018-09-02T06:49:18.733Z,4.67
2018-09-02T06:51:46.209Z,8.73
2018-09-02T06:54:14.591Z,9.70
2018-09-02T06:56:42.421Z,4.20
2018-09-02T06:59:10.078Z,7.83
2018-09-02T07:01:37.407Z,5.30
2018-09-02T07:04:04.763Z,7.67
2018-09-02T07:06:32.104Z,7.40
2018-09-02T07:08:59.417Z,11.50
2018-09-02T07:11:26.726Z,8.90
2018-09-02T07:13:54.166Z,6.67
2018-09-02T07:16:21.748Z,9.40
2018-09-02T07:18:49.305Z,9.43
2018-09-02T07:21:16.818Z,11.63
2018-09-02T07:23:45.415Z,8.50
2018-09-02T07:26:13.353Z,22.87
2018-09-02T07:28:40.773Z,14.13
2018-09-02T07:31:08.381Z,6.00
2018-09-02T07:33:35.741Z,10.23
2018-09-02T07:36:03.068Z,11.70
2018-09-02T07:38:30.479Z,6.17
2018-09-02T07:40:57.855Z,8.17
2018-09-02T07:43:25.220Z,7.70
2018-09-02T07:45:52.634Z,16.73
2018-09-02T07:48:20.123Z,5.93
2018-09-02T07:50:47.794Z,10.20
2018-09-02T07:53:16.481Z,6.20
2018-09-02T07:55:44.549Z,11.67
2018-09-02T07:58:12.068Z,11.50
2018-09-02T08:00:39.964Z,10.53
2018-09-02T08:03:07.511Z,5.27
2018-09-02T08:05:35.274Z,6.87
2018-09-02T08:08:02.614Z,5.00
2018-09-02T08:10:29.967Z,5.27
2018-09-02T08:12:57.853Z,10.00
2018-09-02T08:15:25.113Z,7.50
2018-09-02T08:17:52.418Z,8.00
2018-09-02T08:20:19.799Z,13.30
2018-09-02T08:22:48.274Z,11.50
2018-09-02T08:25:16.575Z,9.80
2018-09-02T08:27:44.721Z,12.10
2018-09-02T08:30:12.193Z,7.63
2018-09-02T08:32:39.579Z,8.87
2018-09-02T08:35:07.527Z,9.33
2018-09-02T08:37:34.870Z,6.90
2018-09-02T08:40:02.211Z,7.23
2018-09-02T08:42:29.521Z,9.07
2018-09-02T08:44:56.854Z,6.60
2018-09-02T08:47:24.271Z,5.93
2018-09-02T08:49:51.622Z,21.60
2018-09-02T08:52:19.080Z,10.00
2018-09-02T08:54:48.355Z,9.60
2018-09-02T08:57:18.119Z,8.73
2018-09-02T08:59:46.999Z,8.40
2018-09-02T09:02:16.865Z,8.23
2018-09-02T09:04:44.275Z,8.27
2018-09-02T09:07:11.846Z,5.50
2018-09-02T09:09:40.292Z,6.93
2018-09-02T09:12:08.569Z,7.43
2018-09-02T09:14:35.979Z,7.13
2018-09-02T09:17:03.382Z,11.83
2018-09-02T09:19:30.680Z,7.67
2018-09-02T09:21:58.047Z,17.53
2018-09-02T09:24:25.406Z,18.87
2018-09-02T09:26:52.734Z,8.00
2018-09-02T09:29:20.092Z,8.27
2018-09-02T09:31:47.442Z,6.80
2018-09-02T09:34:14.785Z,5.63
2018-09-02T09:36:42.227Z,6.67
2018-09-02T09:39:11.373Z,8.37
2018-09-02T09:41:39.774Z,7.77
2018-09-02T09:44:07.288Z,5.33
2018-09-02T09:46:34.833Z,6.73
2018-09-02T09:49:02.182Z,8.10
2018-09-02T09:51:29.526Z,3.90
2018-09-02T09:53:57.121Z,11.37
2018-09-02T09:56:24.487Z,4.80
2018-09-02T09:58:51.863Z,3.33
2018-09-02T10:01:19.275Z,5.03
2018-09-02T10:03:46.835Z,3.87
2018-09-02T10:06:14.294Z,3.27
2018-09-02T10:08:42.147Z,4.00
2018-09-02T10:11:10.334Z,35.47
2018-09-02T10:13:38.000Z,13.97
2018-09-02T10:16:05.552Z,4.20
2018-09-02T10:18:32.860Z,3.43
2018-09-02T10:21:00.220Z,3.47
2018-09-02T10:23:27.696Z,6.00
2018-09-02T10:25:55.283Z,4.00
2018-09-02T10:28:22.851Z,2.60
2018-09-02T10:30:50.241Z,3.20
2018-09-02T10:33:17.653Z,7.50
2018-09-02T10:35:45.109Z,10.77
2018-09-02T10:38:12.619Z,10.13
2018-09-02T10:40:41.105Z,10.17
2018-09-02T10:43:09.232Z,24.83
2018-09-02T10:45:36.781Z,59.43
2018-09-02T10:48:04.235Z,30.77
2018-09-02T10:50:31.760Z,12.80
2018-09-02T10:52:59.121Z,9.20
2018-09-02T10:55:26.478Z,15.50
2018-09-02T10:57:53.817Z,51.37
2018-09-02T11:00:21.206Z,63.43
2018-09-02T11:02:48.551Z,91.47
2018-09-02T11:05:15.883Z,115.63
2018-09-02T11:07:43.383Z,34.67
2018-09-02T11:10:11.707Z,55.80
2018-09-02T11:12:39.645Z,9.47
2018-09-02T11:15:07.372Z,6.80
2018-09-02T11:17:34.736Z,5.67
2018-09-02T11:20:02.042Z,6.17
2018-09-02T11:22:29.386Z,7.27
2018-09-02T11:24:56.781Z,16.40
2018-09-02T11:27:24.175Z,10.07
2018-09-02T11:29:51.519Z,6.27
2018-09-02T11:32:18.861Z,6.97
2018-09-02T11:34:46.177Z,7.50
2018-09-02T11:37:13.666Z,3.80
2018-09-02T11:39:42.112Z,3.73
2018-09-02T11:42:09.950Z,4.17
2018-09-02T11:44:37.324Z,3.70
2018-09-02T11:47:04.683Z,4.03
2018-09-02T11:49:31.987Z,4.37
2018-09-02T11:51:59.337Z,4.57
2018-09-02T11:54:26.649Z,5.23
2018-09-02T11:56:54.002Z,6.47
2018-09-02T11:59:21.337Z,5.17
2018-09-02T12:01:48.735Z,10.50
2018-09-02T12:04:16.042Z,4.67
2018-09-02T12:06:43.597Z,5.37
2018-09-02T12:09:12.004Z,4.63
2018-09-02T12:11:39.658Z,6.07
2018-09-02T12:14:07.034Z,4.30
2018-09-02T12:16:34.505Z,4.13
2018-09-02T12:19:01.831Z,4.50
2018-09-02T12:21:29.201Z,5.43
2018-09-02T12:23:56.793Z,4.00
2018-09-02T12:26:24.191Z,4.17
2018-09-02T12:28:51.583Z,4.17
2018-09-02T12:31:18.911Z,6.00
2018-09-02T12:33:47.035Z,4.17
2018-09-02T12:36:14.582Z,4.17
2018-09-02T12:38:42.943Z,3.10
2018-09-02T12:41:10.806Z,3.60
2018-09-02T12:43:38.287Z,4.40
2018-09-02T12:46:05.619Z,4.90
2018-09-02T12:48:33.123Z,9.03
2018-09-02T12:51:00.486Z,5.73
2018-09-02T12:53:27.834Z,3.83
2018-09-02T12:55:55.207Z,5.37
2018-09-02T12:58:22.582Z,8.97
2018-09-02T13:00:49.950Z,30.53
2018-09-02T13:03:17.399Z,8.83
2018-09-02T13:05:44.946Z,4.57
2018-09-02T13:08:13.373Z,4.70
2018-09-02T13:10:41.403Z,5.87
2018-09-02T13:13:08.811Z,5.30
2018-09-02T13:15:36.206Z,3.17
2018-09-02T13:18:03.623Z,7.43
2018-09-02T13:20:30.967Z,5.30
2018-09-02T13:22:58.351Z,7.03
2018-09-02T13:25:25.672Z,5.20
2018-09-02T13:27:53.043Z,5.67
2018-09-02T13:30:20.644Z,4.07
2018-09-02T13:32:48.010Z,4.33
2018-09-02T13:35:15.574Z,4.70
2018-09-02T13:37:44.011Z,5.60
2018-09-02T13:40:11.919Z,4.20
2018-09-02T13:42:39.387Z,10.17
2018-09-02T13:45:07.184Z,13.00
2018-09-02T13:47:34.590Z,7.07
2018-09-02T13:50:02.295Z,4.30
2018-09-02T13:52:29.631Z,7.30
2018-09-02T13:54:57.021Z,5.17
2018-09-02T13:57:24.390Z,3.50
2018-09-02T13:59:51.857Z,5.10
2018-09-02T14:02:19.577Z,3.92
2018-09-02T14:04:47.552Z,4.50
2018-09-02T14:07:15.385Z,4.80
2018-09-02T14:09:43.719Z,6.67
2018-09-02T14:12:11.114Z,4.20
2018-09-02T14:14:38.536Z,3.97
2018-09-02T14:17:05.870Z,5.77
2018-09-02T14:19:33.268Z,3.97
2018-09-02T14:22:00.599Z,5.23
2018-09-02T14:24:28.135Z,6.10
2018-09-02T14:26:55.467Z,3.90
2018-09-02T14:29:22.880Z,14.20
2018-09-02T14:31:50.247Z,11.00
2018-09-02T14:34:17.609Z,10.63
2018-09-02T14:36:45.563Z,7.17
2018-09-02T14:39:14.570Z,4.53
2018-09-02T14:41:42.653Z,4.07
2018-09-02T14:44:10.054Z,5.50
2018-09-02T14:46:37.862Z,4.00
2018-09-02T14:49:05.221Z,4.33
2018-09-02T14:51:32.534Z,4.60
2018-09-02T14:53:59.873Z,4.53
2018-09-02T14:56:27.199Z,4.80
2018-09-02T14:58:54.589Z,3.77
2018-09-02T15:01:22.218Z,6.20
2018-09-02T15:03:49.570Z,3.67
2018-09-02T15:06:17.214Z,16.23
2018-09-02T15:08:45.649Z,40.83
2018-09-02T15:11:13.588Z,13.17
2018-09-02T15:13:41.063Z,7.40
2018-09-02T15:16:08.674Z,5.30
2018-09-02T15:18:36.095Z,3.90
2018-09-02T15:21:03.485Z,7.50
2018-09-02T15:23:30.825Z,4.20
2018-09-02T15:25:58.214Z,4.83
2018-09-02T15:28:25.596Z,4.23
2018-09-02T15:30:52.934Z,3.57
2018-09-02T15:33:20.473Z,4.60
2018-09-02T15:35:48.199Z,11.07
2018-09-02T15:38:16.939Z,4.40
2018-09-02T15:40:45.165Z,3.97
2018-09-02T15:43:12.508Z,4.43
2018-09-02T15:45:39.883Z,4.07
2018-09-02T15:48:07.253Z,23.07
2018-09-02T15:50:34.624Z,19.13
2018-09-02T15:53:01.988Z,6.13
2018-09-02T15:55:29.417Z,4.33
2018-09-02T15:57:56.730Z,4.13
2018-09-02T16:00:24.102Z,4.73
2018-09-02T16:02:51.458Z,3.10
2018-09-02T16:05:18.960Z,3.40
2018-09-02T16:07:47.243Z,4.43
2018-09-02T16:10:15.334Z,4.93
2018-09-02T16:12:42.750Z,3.50
2018-09-02T16:15:10.079Z,3.10
2018-09-02T16:17:37.447Z,3.60
2018-09-02T16:20:05.064Z,5.70
2018-09-02T16:22:32.429Z,5.53
2018-09-02T16:24:59.741Z,5.67
2018-09-02T16:27:27.082Z,3.42
2018-09-02T16:29:54.398Z,2.83
2018-09-02T16:32:21.773Z,3.80
2018-09-02T16:34:49.293Z,4.40
2018-09-02T16:37:17.603Z,7.30
2018-09-02T16:39:45.643Z,4.50
2018-09-02T16:42:13.073Z,3.07
2018-09-02T16:44:40.392Z,3.70
2018-09-02T16:47:07.741Z,4.83
2018-09-02T16:49:35.045Z,3.53
2018-09-02T16:52:02.413Z,3.60
2018-09-02T16:54:29.991Z,5.03
2018-09-02T16:56:57.377Z,9.75
2018-09-02T16:59:24.846Z,10.57
2018-09-02T17:01:52.209Z,4.50
2018-09-02T17:04:21.027Z,5.47
2018-09-02T17:06:48.801Z,2.30
2018-09-02T17:09:17.223Z,3.17
2018-09-02T17:11:44.606Z,3.00
2018-09-02T17:14:12.042Z,42.80
2018-09-02T17:16:39.382Z,32.27
2018-09-02T17:19:10.710Z,7.80
2018-09-02T17:21:38.102Z,4.27
2018-09-02T17:24:05.464Z,2.93
2018-09-02T17:26:32.790Z,2.90
2018-09-02T17:29:00.201Z,3.33
2018-09-02T17:31:27.526Z,2.47
2018-09-02T17:33:54.931Z,2.80
2018-09-02T17:36:22.276Z,2.70
2018-09-02T17:38:51.070Z,12.93
2018-09-02T17:41:19.481Z,2.45
2018-09-02T17:43:47.745Z,4.20
2018-09-02T17:46:15.413Z,5.80
2018-09-02T17:48:42.827Z,2.87
2018-09-02T17:51:10.197Z,5.80
2018-09-02T17:53:37.554Z,4.73
2018-09-02T17:56:04.870Z,7.63
2018-09-02T17:58:32.252Z,3.23
2018-09-02T18:01:00.137Z,5.37
2018-09-02T18:03:27.497Z,4.53
2018-09-02T18:05:54.832Z,4.80
2018-09-02T18:08:22.304Z,3.80
2018-09-02T18:10:50.278Z,3.37
2018-09-02T18:13:18.510Z,3.87
2018-09-02T18:15:45.932Z,4.20
2018-09-02T18:18:13.285Z,3.37
2018-09-02T18:20:40.622Z,3.63
2018-09-02T18:23:07.934Z,8.70
2018-09-02T18:25:35.260Z,4.60
2018-09-02T18:28:04.986Z,7.93
2018-09-02T18:30:32.368Z,9.70
2018-09-02T18:32:59.982Z,23.65
2018-09-02T18:35:27.501Z,8.67
2018-09-02T18:37:55.072Z,6.70
2018-09-02T18:40:22.409Z,6.73
2018-09-02T18:42:51.359Z,6.90
2018-09-02T18:45:20.008Z,3.33
2018-09-02T18:47:48.318Z,3.83
2018-09-02T18:50:15.732Z,6.70
2018-09-02T18:52:43.775Z,10.83
2018-09-02T18:55:11.491Z,5.27
2018-09-02T18:57:38.793Z,6.53
2018-09-02T19:00:06.505Z,7.07
2018-09-02T19:02:34.117Z,32.27
2018-09-02T19:05:01.971Z,17.57
2018-09-02T19:07:29.647Z,6.40
2018-09-02T19:09:57.282Z,4.23
2018-09-02T19:12:25.247Z,5.57
2018-09-02T19:14:53.373Z,5.73
2018-09-02T19:17:21.553Z,5.17
2018-09-02T19:19:50.171Z,4.47
2018-09-02T19:22:17.538Z,5.83
2018-09-02T19:24:44.955Z,5.13
2018-09-02T19:27:12.330Z,6.97
2018-09-02T19:29:39.848Z,6.80
2018-09-02T19:32:07.267Z,5.20
2018-09-02T19:34:34.618Z,5.33
2018-09-02T19:37:02.239Z,6.47
2018-09-02T19:39:30.103Z,5.23
2018-09-02T19:41:57.481Z,6.60
2018-09-02T19:44:24.793Z,5.63
2018-09-02T19:46:52.720Z,6.33
2018-09-02T19:49:21.075Z,6.77
2018-09-02T19:51:48.576Z,6.90
2018-09-02T19:54:15.970Z,7.53
2018-09-02T19:56:43.365Z,6.60
2018-09-02T19:59:10.710Z,7.17
2018-09-02T20:01:38.070Z,5.40
2018-09-02T20:04:05.414Z,5.90
2018-09-02T20:06:32.746Z,5.07
2018-09-02T20:09:00.195Z,7.63
2018-09-02T20:11:27.595Z,5.40
2018-09-02T20:13:54.945Z,8.07
2018-09-02T20:16:23.130Z,5.40
2018-09-02T20:18:51.572Z,5.43
2018-09-02T20:21:18.997Z,6.20
2018-09-02T20:23:46.453Z,5.20
2018-09-02T20:26:14.180Z,5.20
2018-09-02T20:28:41.492Z,5.43
2018-09-02T20:31:09.104Z,6.60
2018-09-02T20:33:36.479Z,5.27
2018-09-02T20:36:03.874Z,4.83
2018-09-02T20:38:31.220Z,6.03
2018-09-02T20:40:58.607Z,5.70
2018-09-02T20:43:25.940Z,4.97
2018-09-02T20:45:54.052Z,6.43
2018-09-02T20:48:22.476Z,7.30
2018-09-02T20:50:50.329Z,6.97
2018-09-02T20:53:17.718Z,6.70
2018-09-02T20:55:45.068Z,5.93
2018-09-02T20:58:12.430Z,5.60
2018-09-02T21:00:39.812Z,6.53
2018-09-02T21:03:07.174Z,6.53
2018-09-02T21:05:34.545Z,5.00
2018-09-02T21:08:01.894Z,6.50
2018-09-02T21:10:29.254Z,15.57
2018-09-02T21:12:56.646Z,7.73
2018-09-02T21:15:24.227Z,8.10
2018-09-02T21:17:52.779Z,6.63
2018-09-02T21:20:20.434Z,6.00
2018-09-02T21:22:47.873Z,7.37
2018-09-02T21:25:15.524Z,8.07
2018-09-02T21:27:42.875Z,5.80
2018-09-02T21:30:10.200Z,6.50
2018-09-02T21:32:37.566Z,9.27
2018-09-02T21:35:05.037Z,7.57
2018-09-02T21:37:32.386Z,9.83
2018-09-02T21:39:59.704Z,6.23
2018-09-02T21:42:27.036Z,6.30
2018-09-02T21:44:55.081Z,9.13
2018-09-02T21:47:23.490Z,8.20
2018-09-02T21:49:51.362Z,8.40
2018-09-02T21:52:18.779Z,8.57
2018-09-02T21:54:46.151Z,9.77
2018-09-02T21:57:13.718Z,9.60
2018-09-02T21:59:41.060Z,7.33
2018-09-02T22:02:08.406Z,8.37
2018-09-02T22:04:35.766Z,12.03
2018-09-02T22:07:03.137Z,9.40
2018-09-02T22:09:30.439Z,6.90
2018-09-02T22:11:57.889Z,7.77
2018-09-02T22:14:25.408Z,7.67
2018-09-02T22:16:53.896Z,8.83
2018-09-02T22:19:21.575Z,10.73
2018-09-02T22:21:48.960Z,8.03
2018-09-02T22:24:16.306Z,9.80
2018-09-02T22:26:43.645Z,10.73
2018-09-02T22:29:11.011Z,8.93
2018-09-02T22:31:38.334Z,8.27
2018-09-02T22:34:05.706Z,8.17
2018-09-02T22:36:33.036Z,17.60
2018-09-02T22:39:00.366Z,6.20
2018-09-02T22:41:27.749Z,8.60
2018-09-02T22:43:55.838Z,10.47
2018-09-02T22:46:24.123Z,9.03
2018-09-02T22:48:51.515Z,9.10
2018-09-02T22:51:18.878Z,14.07
2018-09-02T22:53:46.218Z,11.80
2018-09-02T22:56:13.585Z,10.20
2018-09-02T22:58:40.945Z,9.53
2018-09-02T23:01:08.319Z,10.67
2018-09-02T23:03:35.672Z,8.33
2018-09-02T23:06:02.990Z,10.30
2018-09-02T23:08:30.355Z,9.20
2018-09-02T23:10:57.846Z,9.27
2018-09-02T23:13:26.079Z,8.67
2018-09-02T23:15:53.916Z,8.30
2018-09-02T23:18:21.321Z,12.77
2018-09-02T23:20:48.687Z,10.33
2018-09-02T23:23:16.115Z,7.70
2018-09-02T23:25:43.480Z,9.00
2018-09-02T23:28:11.386Z,9.33
2018-09-02T23:30:38.697Z,11.70
2018-09-02T23:33:06.172Z,17.47
2018-09-02T23:35:33.523Z,8.70
2018-09-02T23:38:00.859Z,7.23
2018-09-02T23:40:28.329Z,12.10
2018-09-02T23:42:56.800Z,7.67
2018-09-02T23:45:24.736Z,9.00
2018-09-02T23:47:52.248Z,8.17
2018-09-02T23:50:19.630Z,11.90
2018-09-02T23:52:46.950Z,7.93
2018-09-02T23:55:14.315Z,8.53
2018-09-02T23:57:41.642Z,8.77
